sensor_id;sensor_type;location;lat;lon;timestamp;temperature;humidity
50816;DHT22;39717;47.324;8.788;2022-07-21T00:01:46;19.40;99.90
50816;DHT22;39717;47.324;8.788;2022-07-21T00:04:12;19.40;99.90
50816;DHT22;39717;47.324;8.788;2022-07-21T00:06:38;19.40;99.90
50816;DHT22;39717;47.324;8.788;2022-07-21T00:09:04;19.30;99.90
50816;DHT22;39717;47.324;8.788;2022-07-21T00:11:30;19.20;99.90
50816;DHT22;39717;47.324;8.788;2022-07-21T00:13:55;19.20;99.90
50816;DHT22;39717;47.324;8.788;2022-07-21T00:16:21;19.20;99.90
50816;DHT22;39717;47.324;8.788;2022-07-21T00:18:47;19.20;99.90
50816;DHT22;39717;47.324;8.788;2022-07-21T00:21:13;19.20;99.90
50816;DHT22;39717;47.324;8.788;2022-07-21T00:23:38;19.30;99.90
50816;DHT22;39717;47.324;8.788;2022-07-21T00:26:05;19.20;99.90
50816;DHT22;39717;47.324;8.788;2022-07-21T00:28:30;19.20;99.90
50816;DHT22;39717;47.324;8.788;2022-07-21T00:30:56;19.20;99.90
50816;DHT22;39717;47.324;8.788;2022-07-21T00:33:22;19.20;99.90
50816;DHT22;39717;47.324;8.788;2022-07-21T00:35:48;19.20;99.90
50816;DHT22;39717;47.324;8.788;2022-07-21T00:38:14;19.30;99.90
50816;DHT22;39717;47.324;8.788;2022-07-21T00:40:40;19.30;99.90
50816;DHT22;39717;47.324;8.788;2022-07-21T00:43:06;19.40;99.90
50816;DHT22;39717;47.324;8.788;2022-07-21T00:45:32;19.40;99.90
50816;DHT22;39717;47.324;8.788;2022-07-21T00:47:58;19.30;99.90
50816;DHT22;39717;47.324;8.788;2022-07-21T00:50:23;19.40;99.90
50816;DHT22;39717;47.324;8.788;2022-07-21T00:52:50;19.40;99.90
50816;DHT22;39717;47.324;8.788;2022-07-21T00:55:19;19.40;99.90
50816;DHT22;39717;47.324;8.788;2022-07-21T00:57:45;19.30;99.90
50816;DHT22;39717;47.324;8.788;2022-07-21T01:00:16;19.30;99.90
50816;DHT22;39717;47.324;8.788;2022-07-21T01:02:42;19.40;99.90
50816;DHT22;39717;47.324;8.788;2022-07-21T01:05:11;19.40;99.90
50816;DHT22;39717;47.324;8.788;2022-07-21T01:07:51;19.40;99.90
50816;DHT22;39717;47.324;8.788;2022-07-21T01:10:19;19.40;99.90
50816;DHT22;39717;47.324;8.788;2022-07-21T01:12:46;19.30;99.90
50816;DHT22;39717;47.324;8.788;2022-07-21T01:15:13;19.20;99.90
50816;DHT22;39717;47.324;8.788;2022-07-21T01:17:40;19.20;99.90
50816;DHT22;39717;47.324;8.788;2022-07-21T01:20:10;19.30;99.90
50816;DHT22;39717;47.324;8.788;2022-07-21T01:22:39;19.20;99.90
50816;DHT22;39717;47.324;8.788;2022-07-21T01:25:06;19.20;99.90
50816;DHT22;39717;47.324;8.788;2022-07-21T01:27:32;19.20;99.90
50816;DHT22;39717;47.324;8.788;2022-07-21T01:29:59;19.30;99.90
50816;DHT22;39717;47.324;8.788;2022-07-21T01:32:25;19.30;99.90
50816;DHT22;39717;47.324;8.788;2022-07-21T01:34:51;19.30;99.90
50816;DHT22;39717;47.324;8.788;2022-07-21T01:37:22;19.40;99.90
50816;DHT22;39717;47.324;8.788;2022-07-21T01:39:51;19.40;99.90
50816;DHT22;39717;47.324;8.788;2022-07-21T01:42:36;19.40;99.90
50816;DHT22;39717;47.324;8.788;2022-07-21T01:45:03;19.40;99.90
50816;DHT22;39717;47.324;8.788;2022-07-21T01:47:29;19.40;99.90
50816;DHT22;39717;47.324;8.788;2022-07-21T01:49:56;19.50;99.90
50816;DHT22;39717;47.324;8.788;2022-07-21T01:52:22;19.50;99.90
50816;DHT22;39717;47.324;8.788;2022-07-21T01:54:48;19.50;99.90
50816;DHT22;39717;47.324;8.788;2022-07-21T01:57:14;19.50;99.90
50816;DHT22;39717;47.324;8.788;2022-07-21T01:59:40;19.50;99.90
50816;DHT22;39717;47.324;8.788;2022-07-21T02:02:06;19.50;99.90
50816;DHT22;39717;47.324;8.788;2022-07-21T02:04:32;19.50;99.90
50816;DHT22;39717;47.324;8.788;2022-07-21T02:07:00;19.50;99.90
50816;DHT22;39717;47.324;8.788;2022-07-21T02:09:27;19.50;99.90
50816;DHT22;39717;47.324;8.788;2022-07-21T02:11:52;19.50;99.90
50816;DHT22;39717;47.324;8.788;2022-07-21T02:14:18;19.50;99.90
50816;DHT22;39717;47.324;8.788;2022-07-21T02:16:44;19.50;99.90
50816;DHT22;39717;47.324;8.788;2022-07-21T02:19:10;19.50;99.90
50816;DHT22;39717;47.324;8.788;2022-07-21T02:21:36;19.50;99.90
50816;DHT22;39717;47.324;8.788;2022-07-21T02:24:02;19.50;99.90
50816;DHT22;39717;47.324;8.788;2022-07-21T02:26:27;19.50;99.90
50816;DHT22;39717;47.324;8.788;2022-07-21T02:28:53;19.40;99.90
50816;DHT22;39717;47.324;8.788;2022-07-21T02:31:19;19.50;99.90
50816;DHT22;39717;47.324;8.788;2022-07-21T02:33:45;19.50;99.90
50816;DHT22;39717;47.324;8.788;2022-07-21T02:36:11;19.50;99.90
50816;DHT22;39717;47.324;8.788;2022-07-21T02:38:37;19.50;99.90
50816;DHT22;39717;47.324;8.788;2022-07-21T02:41:03;19.60;99.90
50816;DHT22;39717;47.324;8.788;2022-07-21T02:43:29;19.60;99.90
50816;DHT22;39717;47.324;8.788;2022-07-21T02:45:55;19.60;99.90
50816;DHT22;39717;47.324;8.788;2022-07-21T02:48:21;19.60;99.90
50816;DHT22;39717;47.324;8.788;2022-07-21T02:50:46;19.50;99.90
50816;DHT22;39717;47.324;8.788;2022-07-21T02:53:16;19.50;99.90
50816;DHT22;39717;47.324;8.788;2022-07-21T02:55:50;19.60;99.90
50816;DHT22;39717;47.324;8.788;2022-07-21T02:58:25;19.60;99.90
50816;DHT22;39717;47.324;8.788;2022-07-21T03:00:54;19.60;99.90
50816;DHT22;39717;47.324;8.788;2022-07-21T03:03:22;19.60;99.90
50816;DHT22;39717;47.324;8.788;2022-07-21T03:05:49;19.60;99.90
50816;DHT22;39717;47.324;8.788;2022-07-21T03:08:16;19.60;99.90
50816;DHT22;39717;47.324;8.788;2022-07-21T03:10:43;19.50;99.90
50816;DHT22;39717;47.324;8.788;2022-07-21T03:13:09;19.60;99.90
50816;DHT22;39717;47.324;8.788;2022-07-21T03:15:35;19.60;99.90
50816;DHT22;39717;47.324;8.788;2022-07-21T03:18:02;19.60;99.90
50816;DHT22;39717;47.324;8.788;2022-07-21T03:20:34;19.60;99.90
50816;DHT22;39717;47.324;8.788;2022-07-21T03:23:01;19.60;99.90
50816;DHT22;39717;47.324;8.788;2022-07-21T03:25:27;19.60;99.90
50816;DHT22;39717;47.324;8.788;2022-07-21T03:27:54;19.60;99.90
50816;DHT22;39717;47.324;8.788;2022-07-21T03:30:20;19.50;99.90
50816;DHT22;39717;47.324;8.788;2022-07-21T03:32:47;19.60;99.90
50816;DHT22;39717;47.324;8.788;2022-07-21T03:35:14;19.60;99.90
50816;DHT22;39717;47.324;8.788;2022-07-21T03:37:48;19.60;99.90
50816;DHT22;39717;47.324;8.788;2022-07-21T03:40:17;19.60;99.90
50816;DHT22;39717;47.324;8.788;2022-07-21T03:42:43;19.50;99.90
50816;DHT22;39717;47.324;8.788;2022-07-21T03:45:10;19.50;99.90
50816;DHT22;39717;47.324;8.788;2022-07-21T03:47:36;19.50;99.90
50816;DHT22;39717;47.324;8.788;2022-07-21T03:50:04;19.50;99.90
50816;DHT22;39717;47.324;8.788;2022-07-21T03:52:31;19.60;99.90
50816;DHT22;39717;47.324;8.788;2022-07-21T03:54:56;19.60;99.90
50816;DHT22;39717;47.324;8.788;2022-07-21T03:57:38;19.60;99.90
50816;DHT22;39717;47.324;8.788;2022-07-21T04:00:11;19.60;99.90
50816;DHT22;39717;47.324;8.788;2022-07-21T04:02:38;19.60;99.90
50816;DHT22;39717;47.324;8.788;2022-07-21T04:05:04;19.60;99.90
50816;DHT22;39717;47.324;8.788;2022-07-21T04:07:30;19.60;99.90
50816;DHT22;39717;47.324;8.788;2022-07-21T04:09:56;19.60;99.90
50816;DHT22;39717;47.324;8.788;2022-07-21T04:12:28;19.60;99.90
50816;DHT22;39717;47.324;8.788;2022-07-21T04:14:55;19.60;99.90
50816;DHT22;39717;47.324;8.788;2022-07-21T04:17:21;19.70;99.90
50816;DHT22;39717;47.324;8.788;2022-07-21T04:19:48;19.70;99.90
50816;DHT22;39717;47.324;8.788;2022-07-21T04:22:14;19.60;99.90
50816;DHT22;39717;47.324;8.788;2022-07-21T04:24:41;19.60;99.90
50816;DHT22;39717;47.324;8.788;2022-07-21T04:27:06;19.60;99.90
50816;DHT22;39717;47.324;8.788;2022-07-21T04:29:32;19.60;99.90
50816;DHT22;39717;47.324;8.788;2022-07-21T04:31:59;19.60;99.90
50816;DHT22;39717;47.324;8.788;2022-07-21T04:34:24;19.60;99.90
50816;DHT22;39717;47.324;8.788;2022-07-21T04:36:51;19.60;99.90
50816;DHT22;39717;47.324;8.788;2022-07-21T04:39:16;19.60;99.90
50816;DHT22;39717;47.324;8.788;2022-07-21T04:41:42;19.70;99.90
50816;DHT22;39717;47.324;8.788;2022-07-21T04:44:08;19.70;99.90
50816;DHT22;39717;47.324;8.788;2022-07-21T04:46:34;19.70;99.90
50816;DHT22;39717;47.324;8.788;2022-07-21T04:48:59;19.70;99.90
50816;DHT22;39717;47.324;8.788;2022-07-21T04:51:25;19.80;99.90
50816;DHT22;39717;47.324;8.788;2022-07-21T04:56:17;19.80;99.90
50816;DHT22;39717;47.324;8.788;2022-07-21T11:19:36;25.80;46.40
50816;DHT22;39717;47.324;8.788;2022-07-21T11:22:18;26.20;46.90
50816;DHT22;39717;47.324;8.788;2022-07-21T11:24:50;26.50;43.20
50816;DHT22;39717;47.324;8.788;2022-07-21T11:27:23;26.40;40.50
50816;DHT22;39717;47.324;8.788;2022-07-21T11:37:33;26.80;42.00
50816;DHT22;39717;47.324;8.788;2022-07-21T11:39:59;26.40;39.90
50816;DHT22;39717;47.324;8.788;2022-07-21T11:42:27;26.50;38.60
50816;DHT22;39717;47.324;8.788;2022-07-21T11:44:53;26.30;37.90
50816;DHT22;39717;47.324;8.788;2022-07-21T11:47:19;26.00;41.30
50816;DHT22;39717;47.324;8.788;2022-07-21T11:52:31;25.70;40.90
50816;DHT22;39717;47.324;8.788;2022-07-21T11:54:59;25.50;41.70
50816;DHT22;39717;47.324;8.788;2022-07-21T11:57:26;25.70;42.60
50816;DHT22;39717;47.324;8.788;2022-07-21T11:59:54;25.60;40.30
50816;DHT22;39717;47.324;8.788;2022-07-21T12:02:22;25.40;41.30
50816;DHT22;39717;47.324;8.788;2022-07-21T12:04:56;25.10;41.10
50816;DHT22;39717;47.324;8.788;2022-07-21T12:07:41;25.20;43.60
50816;DHT22;39717;47.324;8.788;2022-07-21T12:10:13;25.60;42.80
50816;DHT22;39717;47.324;8.788;2022-07-21T12:12:43;25.90;43.90
50816;DHT22;39717;47.324;8.788;2022-07-21T12:20:11;25.50;40.30
50816;DHT22;39717;47.324;8.788;2022-07-21T12:22:46;25.50;39.60
50816;DHT22;39717;47.324;8.788;2022-07-21T12:25:17;25.50;40.90
50816;DHT22;39717;47.324;8.788;2022-07-21T12:27:47;25.50;44.50
50816;DHT22;39717;47.324;8.788;2022-07-21T12:30:36;25.30;43.10
50816;DHT22;39717;47.324;8.788;2022-07-21T12:33:16;25.40;45.30
50816;DHT22;39717;47.324;8.788;2022-07-21T12:35:45;25.40;42.70
50816;DHT22;39717;47.324;8.788;2022-07-21T12:38:15;25.50;40.10
50816;DHT22;39717;47.324;8.788;2022-07-21T12:40:44;25.50;43.00
50816;DHT22;39717;47.324;8.788;2022-07-21T12:43:16;25.90;39.30
50816;DHT22;39717;47.324;8.788;2022-07-21T12:48:17;25.90;40.60
50816;DHT22;39717;47.324;8.788;2022-07-21T12:50:58;26.10;41.30
50816;DHT22;39717;47.324;8.788;2022-07-21T12:53:24;26.10;38.50
50816;DHT22;39717;47.324;8.788;2022-07-21T12:55:50;26.20;39.30
50816;DHT22;39717;47.324;8.788;2022-07-21T12:58:16;26.30;37.00
50816;DHT22;39717;47.324;8.788;2022-07-21T13:00:42;26.10;36.00
50816;DHT22;39717;47.324;8.788;2022-07-21T13:03:07;25.90;36.20
50816;DHT22;39717;47.324;8.788;2022-07-21T13:05:33;26.00;37.50
50816;DHT22;39717;47.324;8.788;2022-07-21T13:07:59;26.00;37.70
50816;DHT22;39717;47.324;8.788;2022-07-21T13:10:25;26.10;38.00
50816;DHT22;39717;47.324;8.788;2022-07-21T13:12:51;26.10;39.50
50816;DHT22;39717;47.324;8.788;2022-07-21T13:15:17;26.20;38.30
50816;DHT22;39717;47.324;8.788;2022-07-21T13:17:43;26.10;40.70
50816;DHT22;39717;47.324;8.788;2022-07-21T13:20:11;25.80;39.90
50816;DHT22;39717;47.324;8.788;2022-07-21T13:22:37;25.70;41.70
50816;DHT22;39717;47.324;8.788;2022-07-21T13:25:04;25.80;43.00
50816;DHT22;39717;47.324;8.788;2022-07-21T13:27:30;25.80;39.90
50816;DHT22;39717;47.324;8.788;2022-07-21T13:29:56;25.70;41.00
50816;DHT22;39717;47.324;8.788;2022-07-21T13:32:22;25.80;41.10
50816;DHT22;39717;47.324;8.788;2022-07-21T13:34:47;26.20;36.70
50816;DHT22;39717;47.324;8.788;2022-07-21T13:37:13;26.20;36.20
50816;DHT22;39717;47.324;8.788;2022-07-21T13:39:39;26.20;35.20
50816;DHT22;39717;47.324;8.788;2022-07-21T13:42:06;26.30;37.70
50816;DHT22;39717;47.324;8.788;2022-07-21T13:44:34;26.30;41.60
50816;DHT22;39717;47.324;8.788;2022-07-21T13:47:00;26.30;36.20
50816;DHT22;39717;47.324;8.788;2022-07-21T13:49:26;26.40;38.20
50816;DHT22;39717;47.324;8.788;2022-07-21T13:51:51;26.40;37.30
50816;DHT22;39717;47.324;8.788;2022-07-21T13:54:17;26.50;35.70
50816;DHT22;39717;47.324;8.788;2022-07-21T13:56:43;26.70;35.60
50816;DHT22;39717;47.324;8.788;2022-07-21T13:59:09;26.80;34.60
50816;DHT22;39717;47.324;8.788;2022-07-21T14:01:35;26.90;36.00
50816;DHT22;39717;47.324;8.788;2022-07-21T14:04:01;26.90;32.80
50816;DHT22;39717;47.324;8.788;2022-07-21T14:06:26;26.80;33.70
50816;DHT22;39717;47.324;8.788;2022-07-21T14:08:52;26.70;34.00
50816;DHT22;39717;47.324;8.788;2022-07-21T14:11:18;26.90;33.90
50816;DHT22;39717;47.324;8.788;2022-07-21T14:13:44;26.90;35.20
50816;DHT22;39717;47.324;8.788;2022-07-21T14:16:09;26.90;30.30
50816;DHT22;39717;47.324;8.788;2022-07-21T14:18:35;27.10;29.50
50816;DHT22;39717;47.324;8.788;2022-07-21T14:21:01;27.30;30.50
50816;DHT22;39717;47.324;8.788;2022-07-21T14:23:27;27.40;30.60
50816;DHT22;39717;47.324;8.788;2022-07-21T14:25:53;28.00;31.30
50816;DHT22;39717;47.324;8.788;2022-07-21T14:28:19;27.90;30.00
50816;DHT22;39717;47.324;8.788;2022-07-21T14:57:36;28.30;29.40
50816;DHT22;39717;47.324;8.788;2022-07-21T15:00:08;27.00;29.00
50816;DHT22;39717;47.324;8.788;2022-07-21T15:02:34;27.10;29.30
50816;DHT22;39717;47.324;8.788;2022-07-21T15:05:01;27.00;29.50
50816;DHT22;39717;47.324;8.788;2022-07-21T15:07:27;27.00;30.10
50816;DHT22;39717;47.324;8.788;2022-07-21T15:09:53;27.00;29.00
50816;DHT22;39717;47.324;8.788;2022-07-21T15:12:21;27.00;30.20
50816;DHT22;39717;47.324;8.788;2022-07-21T15:14:48;27.10;30.00
50816;DHT22;39717;47.324;8.788;2022-07-21T15:17:14;27.20;29.50
50816;DHT22;39717;47.324;8.788;2022-07-21T15:19:41;27.20;31.10
50816;DHT22;39717;47.324;8.788;2022-07-21T15:22:08;27.00;27.30
50816;DHT22;39717;47.324;8.788;2022-07-21T15:24:34;27.10;28.50
50816;DHT22;39717;47.324;8.788;2022-07-21T15:27:00;27.10;27.60
50816;DHT22;39717;47.324;8.788;2022-07-21T15:29:26;27.10;28.80
50816;DHT22;39717;47.324;8.788;2022-07-21T15:31:52;26.90;28.10
50816;DHT22;39717;47.324;8.788;2022-07-21T15:34:18;27.10;27.70
50816;DHT22;39717;47.324;8.788;2022-07-21T15:36:43;27.00;28.10
50816;DHT22;39717;47.324;8.788;2022-07-21T15:39:09;27.00;28.80
50816;DHT22;39717;47.324;8.788;2022-07-21T15:41:37;26.90;29.60
50816;DHT22;39717;47.324;8.788;2022-07-21T15:44:04;27.10;29.70
50816;DHT22;39717;47.324;8.788;2022-07-21T15:46:32;27.20;29.10
50816;DHT22;39717;47.324;8.788;2022-07-21T15:48:59;27.10;30.40
50816;DHT22;39717;47.324;8.788;2022-07-21T15:51:25;27.20;30.20
50816;DHT22;39717;47.324;8.788;2022-07-21T15:53:51;27.30;27.50
50816;DHT22;39717;47.324;8.788;2022-07-21T15:56:17;27.50;27.50
50816;DHT22;39717;47.324;8.788;2022-07-21T15:58:43;27.50;28.40
50816;DHT22;39717;47.324;8.788;2022-07-21T16:01:27;27.50;27.00
50816;DHT22;39717;47.324;8.788;2022-07-21T16:03:53;27.40;27.60
50816;DHT22;39717;47.324;8.788;2022-07-21T16:06:19;27.60;27.00
50816;DHT22;39717;47.324;8.788;2022-07-21T16:08:45;27.50;27.40
50816;DHT22;39717;47.324;8.788;2022-07-21T16:11:11;27.30;26.90
50816;DHT22;39717;47.324;8.788;2022-07-21T16:13:38;27.30;28.10
50816;DHT22;39717;47.324;8.788;2022-07-21T16:16:04;27.60;29.40
50816;DHT22;39717;47.324;8.788;2022-07-21T16:18:30;27.60;28.90
50816;DHT22;39717;47.324;8.788;2022-07-21T16:20:56;27.50;26.90
50816;DHT22;39717;47.324;8.788;2022-07-21T16:23:21;27.50;27.20
50816;DHT22;39717;47.324;8.788;2022-07-21T16:25:47;27.40;29.80
50816;DHT22;39717;47.324;8.788;2022-07-21T16:28:13;27.60;29.70
50816;DHT22;39717;47.324;8.788;2022-07-21T16:30:39;27.60;28.20
50816;DHT22;39717;47.324;8.788;2022-07-21T16:33:04;27.60;27.10
50816;DHT22;39717;47.324;8.788;2022-07-21T16:35:30;27.60;27.90
50816;DHT22;39717;47.324;8.788;2022-07-21T16:37:56;27.60;28.20
50816;DHT22;39717;47.324;8.788;2022-07-21T16:40:22;27.50;28.30
50816;DHT22;39717;47.324;8.788;2022-07-21T16:42:49;27.40;27.60
50816;DHT22;39717;47.324;8.788;2022-07-21T16:45:16;27.40;30.20
50816;DHT22;39717;47.324;8.788;2022-07-21T16:47:44;27.50;29.30
50816;DHT22;39717;47.324;8.788;2022-07-21T16:50:09;27.90;28.30
50816;DHT22;39717;47.324;8.788;2022-07-21T16:52:35;27.60;28.90
50816;DHT22;39717;47.324;8.788;2022-07-21T16:55:02;27.60;27.70
50816;DHT22;39717;47.324;8.788;2022-07-21T16:57:28;27.60;29.40
50816;DHT22;39717;47.324;8.788;2022-07-21T16:59:54;27.50;28.70
50816;DHT22;39717;47.324;8.788;2022-07-21T17:02:19;27.50;28.80
50816;DHT22;39717;47.324;8.788;2022-07-21T17:04:45;27.20;29.10
50816;DHT22;39717;47.324;8.788;2022-07-21T17:07:11;27.00;30.00
50816;DHT22;39717;47.324;8.788;2022-07-21T17:09:36;26.90;29.40
50816;DHT22;39717;47.324;8.788;2022-07-21T17:12:02;27.00;29.00
50816;DHT22;39717;47.324;8.788;2022-07-21T17:14:28;27.00;29.00
50816;DHT22;39717;47.324;8.788;2022-07-21T17:16:54;27.10;29.00
50816;DHT22;39717;47.324;8.788;2022-07-21T17:19:20;27.00;28.90
50816;DHT22;39717;47.324;8.788;2022-07-21T17:21:46;27.00;29.90
50816;DHT22;39717;47.324;8.788;2022-07-21T17:24:12;27.00;30.80
50816;DHT22;39717;47.324;8.788;2022-07-21T17:26:37;27.10;29.60
50816;DHT22;39717;47.324;8.788;2022-07-21T17:29:03;27.20;31.80
50816;DHT22;39717;47.324;8.788;2022-07-21T17:31:29;27.20;29.80
50816;DHT22;39717;47.324;8.788;2022-07-21T17:33:55;27.10;29.50
50816;DHT22;39717;47.324;8.788;2022-07-21T17:36:21;27.20;30.20
50816;DHT22;39717;47.324;8.788;2022-07-21T17:38:46;27.60;29.60
50816;DHT22;39717;47.324;8.788;2022-07-21T17:41:12;27.60;29.40
50816;DHT22;39717;47.324;8.788;2022-07-21T17:43:38;27.30;29.20
50816;DHT22;39717;47.324;8.788;2022-07-21T17:46:04;27.10;30.40
50816;DHT22;39717;47.324;8.788;2022-07-21T17:48:30;27.00;30.60
50816;DHT22;39717;47.324;8.788;2022-07-21T17:50:55;27.00;29.90
50816;DHT22;39717;47.324;8.788;2022-07-21T17:53:21;27.00;30.40
50816;DHT22;39717;47.324;8.788;2022-07-21T17:55:47;27.00;30.10
50816;DHT22;39717;47.324;8.788;2022-07-21T17:58:13;26.90;29.70
50816;DHT22;39717;47.324;8.788;2022-07-21T18:00:57;26.90;30.40
50816;DHT22;39717;47.324;8.788;2022-07-21T19:23:52;26.70;29.40
50816;DHT22;39717;47.324;8.788;2022-07-21T19:28:44;24.00;63.10
50816;DHT22;39717;47.324;8.788;2022-07-21T19:38:30;23.90;65.60
50816;DHT22;39717;47.324;8.788;2022-07-21T19:40:55;23.60;76.80
50816;DHT22;39717;47.324;8.788;2022-07-21T19:50:43;23.50;82.70
50816;DHT22;39717;47.324;8.788;2022-07-21T19:53:09;23.30;85.40
50816;DHT22;39717;47.324;8.788;2022-07-21T19:55:38;23.20;85.10
50816;DHT22;39717;47.324;8.788;2022-07-21T20:07:48;23.20;87.70
50816;DHT22;39717;47.324;8.788;2022-07-21T20:10:14;22.90;90.60
50816;DHT22;39717;47.324;8.788;2022-07-21T20:12:40;22.80;91.30
50816;DHT22;39717;47.324;8.788;2022-07-21T20:15:08;22.70;91.30
50816;DHT22;39717;47.324;8.788;2022-07-21T20:17:35;22.70;92.00
50816;DHT22;39717;47.324;8.788;2022-07-21T20:20:01;22.70;92.00
50816;DHT22;39717;47.324;8.788;2022-07-21T20:22:27;22.70;92.50
50816;DHT22;39717;47.324;8.788;2022-07-21T20:24:53;22.70;91.50
50816;DHT22;39717;47.324;8.788;2022-07-21T20:27:19;22.70;92.00
50816;DHT22;39717;47.324;8.788;2022-07-21T20:29:44;22.60;92.50
50816;DHT22;39717;47.324;8.788;2022-07-21T20:32:10;22.60;92.40
50816;DHT22;39717;47.324;8.788;2022-07-21T20:34:39;22.50;92.60
50816;DHT22;39717;47.324;8.788;2022-07-21T20:37:05;22.50;93.50
50816;DHT22;39717;47.324;8.788;2022-07-21T20:39:30;22.40;94.10
50816;DHT22;39717;47.324;8.788;2022-07-21T20:41:56;22.30;93.80
50816;DHT22;39717;47.324;8.788;2022-07-21T20:44:22;22.30;94.70
50816;DHT22;39717;47.324;8.788;2022-07-21T21:01:25;22.30;95.60
50816;DHT22;39717;47.324;8.788;2022-07-21T21:06:17;22.00;99.50
50816;DHT22;39717;47.324;8.788;2022-07-21T21:08:43;22.00;99.10
50816;DHT22;39717;47.324;8.788;2022-07-21T21:11:09;21.90;99.50
50816;DHT22;39717;47.324;8.788;2022-07-21T21:13:35;21.90;99.90
50816;DHT22;39717;47.324;8.788;2022-07-21T21:16:01;21.90;99.90
50816;DHT22;39717;47.324;8.788;2022-07-21T21:18:27;21.80;99.90
50816;DHT22;39717;47.324;8.788;2022-07-21T21:20:52;21.70;99.90
50816;DHT22;39717;47.324;8.788;2022-07-21T21:23:19;21.70;99.90
50816;DHT22;39717;47.324;8.788;2022-07-21T21:25:45;21.60;99.90
50816;DHT22;39717;47.324;8.788;2022-07-21T21:28:10;21.60;99.90
50816;DHT22;39717;47.324;8.788;2022-07-21T21:30:38;21.60;99.90
50816;DHT22;39717;47.324;8.788;2022-07-21T21:33:04;21.60;99.90
50816;DHT22;39717;47.324;8.788;2022-07-21T21:35:30;21.50;99.90
50816;DHT22;39717;47.324;8.788;2022-07-21T21:37:56;21.50;99.90
50816;DHT22;39717;47.324;8.788;2022-07-21T21:40:21;21.40;99.90
50816;DHT22;39717;47.324;8.788;2022-07-21T21:42:47;21.40;99.90
50816;DHT22;39717;47.324;8.788;2022-07-21T21:45:13;21.30;99.90
50816;DHT22;39717;47.324;8.788;2022-07-21T21:47:39;21.30;99.90
50816;DHT22;39717;47.324;8.788;2022-07-21T21:50:05;21.30;99.90
50816;DHT22;39717;47.324;8.788;2022-07-21T22:04:42;21.20;99.90
50816;DHT22;39717;47.324;8.788;2022-07-21T22:07:08;21.00;99.90
50816;DHT22;39717;47.324;8.788;2022-07-21T22:09:33;20.90;99.90
50816;DHT22;39717;47.324;8.788;2022-07-21T22:43:42;20.90;99.90
50816;DHT22;39717;47.324;8.788;2022-07-21T22:46:07;20.40;99.90
50816;DHT22;39717;47.324;8.788;2022-07-21T22:48:33;20.30;99.90
50816;DHT22;39717;47.324;8.788;2022-07-21T22:50:59;20.30;99.90
50816;DHT22;39717;47.324;8.788;2022-07-21T22:53:25;20.10;99.90
50816;DHT22;39717;47.324;8.788;2022-07-21T22:55:50;20.10;99.90
50816;DHT22;39717;47.324;8.788;2022-07-21T22:58:16;20.10;99.90
50816;DHT22;39717;47.324;8.788;2022-07-21T23:00:42;20.10;99.90
50816;DHT22;39717;47.324;8.788;2022-07-21T23:03:08;20.00;99.90
50816;DHT22;39717;47.324;8.788;2022-07-21T23:05:36;20.00;99.90
50816;DHT22;39717;47.324;8.788;2022-07-21T23:08:03;19.90;99.90
50816;DHT22;39717;47.324;8.788;2022-07-21T23:42:11;19.90;99.90
50816;DHT22;39717;47.324;8.788;2022-07-21T23:44:37;19.50;99.90
50816;DHT22;39717;47.324;8.788;2022-07-21T23:47:03;19.40;99.90
50816;DHT22;39717;47.324;8.788;2022-07-21T23:49:29;19.40;99.90
50816;DHT22;39717;47.324;8.788;2022-07-21T23:51:55;19.40;99.90
50816;DHT22;39717;47.324;8.788;2022-07-21T23:54:21;19.30;99.90
50816;DHT22;39717;47.324;8.788;2022-07-21T23:56:46;19.30;99.90
50816;DHT22;39717;47.324;8.788;2022-07-21T23:59:13;19.30;99.90
